createdAt,value
2023-01-25T00:01:21.426Z,100988.41
2023-01-25T00:04:23.741Z,100990.16
2023-01-25T00:07:25.676Z,100986.75
2023-01-25T00:10:27.714Z,100986.78
2023-01-25T00:13:29.632Z,100988.56
2023-01-25T00:16:32.049Z,100991.19
2023-01-25T00:19:34.039Z,100988.56
2023-01-25T00:22:36.125Z,100985.94
2023-01-25T00:25:38.128Z,100974.63
2023-01-25T00:28:40.066Z,100976.28
2023-01-25T00:31:57.285Z,100972.75
2023-01-25T00:34:59.373Z,100970.13
2023-01-25T00:38:06.460Z,100967.44
2023-01-25T00:41:10.076Z,100970.00
2023-01-25T00:44:12.025Z,100978.69
2023-01-25T00:47:14.817Z,100980.41
2023-01-25T00:50:16.825Z,100970.75
2023-01-25T00:53:18.691Z,100969.78
2023-01-25T00:56:20.921Z,100966.16
2023-01-25T00:59:24.630Z,100958.25
2023-01-25T01:02:26.912Z,100963.31
2023-01-25T01:05:29.591Z,100970.09
2023-01-25T01:08:34.851Z,100964.66
2023-01-25T01:11:37.895Z,100961.91
2023-01-25T01:14:39.942Z,100966.97
2023-01-25T01:17:41.945Z,100970.31
2023-01-25T01:20:49.690Z,100959.72
2023-01-25T01:23:51.651Z,100959.53
2023-01-25T01:26:53.641Z,100959.41
2023-01-25T01:29:55.529Z,100957.47
2023-01-25T01:32:57.701Z,100955.56
2023-01-25T01:35:59.727Z,100951.97
2023-01-25T01:39:01.825Z,100956.19
2023-01-25T01:42:04.699Z,100954.41
2023-01-25T01:45:44.680Z,100957.81
2023-01-25T01:48:54.488Z,100959.53
2023-01-25T01:52:03.422Z,100961.13
2023-01-25T01:55:22.107Z,100951.38
2023-01-25T01:58:27.761Z,100943.31
2023-01-25T02:01:30.673Z,100943.19
2023-01-25T02:04:33.693Z,100947.44
2023-01-25T02:07:37.284Z,100939.50
2023-01-25T02:10:41.134Z,100926.34
2023-01-25T02:13:43.979Z,100927.97
2023-01-25T02:16:50.790Z,100934.91
2023-01-25T02:20:06.444Z,100938.34
2023-01-25T02:23:37.595Z,100928.72
2023-01-25T02:26:40.329Z,100928.63
2023-01-25T02:29:44.503Z,100935.53
2023-01-25T02:32:46.516Z,100924.94
2023-01-25T02:35:53.972Z,100914.38
2023-01-25T02:39:10.204Z,100913.41
2023-01-25T02:42:12.667Z,100915.06
2023-01-25T02:45:18.156Z,100907.22
2023-01-25T02:48:20.913Z,100909.84
2023-01-25T02:51:24.876Z,100908.88
2023-01-25T02:54:29.923Z,100905.25
2023-01-25T02:57:31.849Z,100899.13
2023-01-25T03:00:36.692Z,100910.41
2023-01-25T03:03:39.195Z,100913.75
2023-01-25T03:06:42.016Z,100898.78
2023-01-25T03:09:44.314Z,100903.84
2023-01-25T03:12:46.441Z,100894.22
2023-01-25T03:15:48.445Z,100902.09
2023-01-25T03:18:53.399Z,100906.34
2023-01-25T03:21:58.133Z,100901.91
2023-01-25T03:25:00.964Z,100905.53
2023-01-25T03:28:03.580Z,100899.38
2023-01-25T03:31:06.691Z,100896.75
2023-01-25T03:34:08.657Z,100903.84
2023-01-25T03:37:14.693Z,100895.94
2023-01-25T03:40:18.041Z,100898.56
2023-01-25T03:43:25.314Z,100902.91
2023-01-25T03:46:28.080Z,100906.34
2023-01-25T03:49:30.027Z,100910.81
2023-01-25T03:52:38.565Z,100920.41
2023-01-25T03:55:41.969Z,100928.16
2023-01-25T03:58:45.637Z,100930.78
2023-01-25T04:01:47.906Z,100928.13
2023-01-25T04:04:50.541Z,100921.88
2023-01-25T04:07:54.455Z,100914.72
2023-01-25T04:11:07.947Z,100915.47
2023-01-25T04:14:10.554Z,100920.72
2023-01-25T04:17:22.516Z,100912.84
2023-01-25T04:20:35.481Z,100917.19
2023-01-25T04:23:37.514Z,100922.41
2023-01-25T04:26:40.049Z,100922.38
2023-01-25T04:29:42.274Z,100924.16
2023-01-25T04:32:50.290Z,100924.91
2023-01-25T04:36:10.324Z,100929.25
2023-01-25T04:39:13.191Z,100923.19
2023-01-25T04:42:15.305Z,100926.63
2023-01-25T04:45:20.283Z,100929.25
2023-01-25T04:48:23.089Z,100931.88
2023-01-25T04:51:30.676Z,100926.66
2023-01-25T04:54:32.936Z,100913.41
2023-01-25T04:57:35.328Z,100924.81
2023-01-25T05:00:37.480Z,100921.28
2023-01-25T05:03:40.251Z,100926.53
2023-01-25T05:06:49.437Z,100927.34
2023-01-25T05:09:52.245Z,100933.31
2023-01-25T05:12:57.066Z,100940.28
2023-01-25T05:15:59.379Z,100947.28
2023-01-25T05:19:01.629Z,100948.97
2023-01-25T05:22:30.603Z,100948.88
2023-01-25T05:25:51.175Z,100952.31
2023-01-25T05:29:00.740Z,100946.22
2023-01-25T05:32:21.811Z,100942.63
2023-01-25T05:35:24.700Z,100934.78
2023-01-25T05:38:30.515Z,100932.03
2023-01-25T05:41:32.738Z,100920.59
2023-01-25T05:44:34.768Z,100929.22
2023-01-25T05:47:36.789Z,100930.97
2023-01-25T05:50:38.777Z,100938.00
2023-01-25T05:53:47.031Z,100939.63
2023-01-25T05:56:50.495Z,100941.34
2023-01-25T05:59:53.552Z,100931.78
2023-01-25T06:02:57.028Z,100937.19
2023-01-25T06:06:03.064Z,100934.50
2023-01-25T06:09:06.704Z,100931.03
2023-01-25T06:12:10.822Z,100944.16
2023-01-25T06:15:12.772Z,100948.78
2023-01-25T06:18:15.365Z,100959.06
2023-01-25T06:21:37.551Z,100945.91
2023-01-25T06:24:39.496Z,100947.84
2023-01-25T06:27:41.454Z,100942.63
2023-01-25T06:30:43.462Z,100940.94
2023-01-25T06:33:50.214Z,100926.91
2023-01-25T06:36:54.224Z,100928.53
2023-01-25T06:39:56.228Z,100931.25
2023-01-25T06:43:11.624Z,100932.94
2023-01-25T06:46:14.150Z,100928.63
2023-01-25T06:49:16.189Z,100917.22
2023-01-25T06:52:18.118Z,100919.75
2023-01-25T06:55:20.430Z,100926.63
2023-01-25T06:58:22.316Z,100921.38
2023-01-25T07:01:30.433Z,100921.22
2023-01-25T07:04:32.679Z,100918.31
2023-01-25T07:07:34.752Z,100911.25
2023-01-25T07:10:36.719Z,100921.75
2023-01-25T07:13:38.604Z,100915.59
2023-01-25T07:16:40.637Z,100909.97
2023-01-25T07:19:42.544Z,100906.41
2023-01-25T07:22:44.516Z,100903.66
2023-01-25T07:25:47.933Z,100903.41
2023-01-25T07:28:50.604Z,100907.50
2023-01-25T07:31:52.667Z,100898.59
2023-01-25T07:34:54.664Z,100902.75
2023-01-25T07:37:56.556Z,100899.84
2023-01-25T07:40:58.671Z,100897.88
2023-01-25T07:44:00.822Z,100890.84
2023-01-25T07:47:21.296Z,100896.47
2023-01-25T07:50:23.249Z,100912.72
2023-01-25T07:53:25.139Z,100915.19
2023-01-25T07:56:29.616Z,100904.56
2023-01-25T07:59:32.137Z,100912.25
2023-01-25T08:02:34.082Z,100925.28
2023-01-25T08:05:36.134Z,100925.06
2023-01-25T08:08:47.703Z,100920.50
2023-01-25T08:11:49.697Z,100923.75
2023-01-25T08:14:52.003Z,100927.09
2023-01-25T08:17:53.928Z,100928.41
2023-01-25T08:20:59.370Z,100920.28
2023-01-25T08:24:04.271Z,100931.72
2023-01-25T08:27:06.218Z,100935.09
2023-01-25T08:30:08.890Z,100926.16
2023-01-25T08:33:13.385Z,100919.94
2023-01-25T08:36:17.708Z,100925.06
2023-01-25T08:39:19.827Z,100917.06
2023-01-25T08:42:22.499Z,100922.88
2023-01-25T08:45:24.667Z,100916.47
2023-01-25T08:48:26.908Z,100905.13
2023-01-25T08:51:31.597Z,100915.66
2023-01-25T08:54:33.695Z,100909.91
2023-01-25T08:57:35.610Z,100903.97
2023-01-25T09:00:41.251Z,100903.72
2023-01-25T09:03:44.870Z,100905.13
2023-01-25T09:06:46.956Z,100893.50
2023-01-25T09:09:48.890Z,100889.00
2023-01-25T09:12:50.835Z,100879.84
2023-01-25T09:15:52.988Z,100882.16
2023-01-25T09:19:00.183Z,100872.41
2023-01-25T09:22:03.581Z,100865.97
2023-01-25T09:25:05.873Z,100865.63
2023-01-25T09:28:11.605Z,100873.69
2023-01-25T09:31:21.736Z,100874.00
2023-01-25T09:34:43.005Z,100870.84
2023-01-25T09:37:44.986Z,100861.59
2023-01-25T09:41:05.910Z,100848.19
2023-01-25T09:44:32.770Z,100843.50
2023-01-25T09:47:40.489Z,100852.06
2023-01-25T09:51:23.766Z,100837.94
2023-01-25T09:54:29.926Z,100834.22
2023-01-25T09:57:41.329Z,100827.44
2023-01-25T10:00:49.920Z,100826.00
2023-01-25T10:04:06.216Z,100822.84
2023-01-25T10:07:45.592Z,100809.34
2023-01-25T10:10:51.096Z,100811.28
2023-01-25T10:13:56.090Z,100805.78
2023-01-25T10:17:14.586Z,100803.97
2023-01-25T10:20:16.546Z,100798.53
2023-01-25T10:23:39.688Z,100791.88
2023-01-25T10:26:46.910Z,100797.09
2023-01-25T10:29:50.353Z,100805.94
2023-01-25T10:32:56.121Z,100799.44
2023-01-25T10:36:03.126Z,100789.94
2023-01-25T10:39:07.722Z,100777.25
2023-01-25T10:42:15.575Z,100779.03
2023-01-25T10:45:18.357Z,100779.91
2023-01-25T10:48:24.754Z,100777.25
2023-01-25T10:51:35.547Z,100765.75
2023-01-25T10:54:37.657Z,100750.59
2023-01-25T10:57:44.345Z,100746.06
2023-01-25T11:00:51.946Z,100739.97
2023-01-25T11:03:54.382Z,100739.59
2023-01-25T11:06:56.572Z,100740.19
2023-01-25T11:09:58.462Z,100735.50
2023-01-25T11:13:27.404Z,100724.75
2023-01-25T11:16:40.246Z,100719.13
2023-01-25T11:19:42.247Z,100716.09
2023-01-25T11:22:56.381Z,100702.06
2023-01-25T11:26:18.951Z,100700.88
2023-01-25T11:29:24.789Z,100697.03
2023-01-25T11:32:27.356Z,100695.47
2023-01-25T11:35:33.474Z,100692.84
2023-01-25T11:38:36.099Z,100685.06
2023-01-25T11:42:01.755Z,100694.03
2023-01-25T11:45:15.933Z,100685.22
2023-01-25T11:48:36.777Z,100679.94
2023-01-25T11:51:54.001Z,100680.09
2023-01-25T11:55:23.884Z,100670.47
2023-01-25T11:58:43.516Z,100674.03
2023-01-25T12:02:10.984Z,100668.91
2023-01-25T12:05:22.500Z,100674.53
2023-01-25T12:08:47.058Z,100669.94
2023-01-25T12:12:04.158Z,100670.78
2023-01-25T12:15:24.952Z,100676.06
2023-01-25T12:18:49.907Z,100667.19
2023-01-25T12:22:13.404Z,100662.75
2023-01-25T12:25:20.764Z,100659.50
2023-01-25T12:28:38.653Z,100667.53
2023-01-25T12:31:53.785Z,100659.69
2023-01-25T12:35:19.536Z,100656.94
2023-01-25T12:38:30.409Z,100652.50
2023-01-25T12:41:36.155Z,100641.06
2023-01-25T12:44:55.027Z,100641.94
2023-01-25T12:48:18.855Z,100636.81
2023-01-25T12:51:24.509Z,100644.06
2023-01-25T12:54:41.180Z,100640.38
2023-01-25T12:58:16.393Z,100642.25
2023-01-25T13:01:57.145Z,100644.22
2023-01-25T13:05:21.973Z,100637.28
2023-01-25T13:08:53.482Z,100639.09
2023-01-25T13:11:55.510Z,100638.47
2023-01-25T13:14:57.477Z,100637.03
2023-01-25T13:17:59.409Z,100639.56
2023-01-25T13:21:04.663Z,100637.09
2023-01-25T13:24:18.875Z,100637.09
2023-01-25T13:27:27.180Z,100633.84
2023-01-25T13:30:31.073Z,100628.72
2023-01-25T13:33:36.303Z,100633.22
2023-01-25T13:36:46.171Z,100630.75
2023-01-25T13:40:09.677Z,100631.06
2023-01-25T13:43:11.959Z,100630.38
2023-01-25T13:46:17.412Z,100634.97
2023-01-25T13:49:27.383Z,100635.22
2023-01-25T13:52:33.027Z,100648.59
2023-01-25T13:55:40.426Z,100645.41
2023-01-25T13:58:48.134Z,100652.00
2023-01-25T14:01:52.941Z,100649.69
2023-01-25T14:04:55.265Z,100644.72
2023-01-25T14:07:57.421Z,100665.44
2023-01-25T14:10:59.712Z,100655.34
2023-01-25T14:14:16.607Z,100660.16
2023-01-25T14:17:22.159Z,100663.22
2023-01-25T14:20:24.516Z,100665.25
2023-01-25T14:23:28.181Z,100665.47
2023-01-25T14:26:39.317Z,100664.13
2023-01-25T14:29:41.830Z,100663.56
2023-01-25T14:32:43.745Z,100659.44
2023-01-25T14:35:55.582Z,100663.00
2023-01-25T14:38:59.506Z,100653.59
2023-01-25T14:42:02.197Z,100658.16
2023-01-25T14:45:04.461Z,100662.78
2023-01-25T14:48:06.497Z,100664.78
2023-01-25T14:51:27.821Z,100655.31
2023-01-25T14:54:34.317Z,100659.00
2023-01-25T14:57:40.677Z,100662.78
2023-01-25T15:00:42.774Z,100655.94
2023-01-25T15:03:45.004Z,100660.50
2023-01-25T15:06:59.182Z,100659.88
2023-01-25T15:10:30.026Z,100657.38
2023-01-25T15:13:32.092Z,100648.81
2023-01-25T15:16:34.988Z,100655.16
2023-01-25T15:19:37.277Z,100649.56
2023-01-25T15:22:39.221Z,100645.47
2023-01-25T15:25:57.654Z,100646.94
2023-01-25T15:29:12.281Z,100640.28
2023-01-25T15:32:23.370Z,100647.72
2023-01-25T15:35:25.330Z,100647.22
2023-01-25T15:38:27.310Z,100648.25
2023-01-25T15:41:29.195Z,100638.91
2023-01-25T15:44:31.164Z,100642.84
2023-01-25T15:47:33.497Z,100634.34
2023-01-25T15:50:35.475Z,100640.59
2023-01-25T15:53:37.693Z,100643.50
2023-01-25T15:56:42.020Z,100647.31
2023-01-25T15:59:44.088Z,100638.63
2023-01-25T16:02:46.400Z,100644.00
2023-01-25T16:05:51.928Z,100644.25
2023-01-25T16:08:54.144Z,100649.63
2023-01-25T16:11:58.424Z,100647.38
2023-01-25T16:15:00.581Z,100653.69
2023-01-25T16:18:02.717Z,100648.59
2023-01-25T16:21:04.743Z,100644.31
2023-01-25T16:24:07.401Z,100647.06
2023-01-25T16:27:16.862Z,100643.91
2023-01-25T16:30:25.934Z,100648.41
2023-01-25T16:33:27.880Z,100652.25
2023-01-25T16:36:31.660Z,100650.56
2023-01-25T16:39:33.644Z,100661.13
2023-01-25T16:42:35.599Z,100646.22
2023-01-25T16:45:38.017Z,100652.22
2023-01-25T16:48:39.933Z,100646.94
2023-01-25T16:51:41.852Z,100656.53
2023-01-25T16:54:43.795Z,100657.41
2023-01-25T16:57:50.355Z,100655.56
2023-01-25T17:00:52.414Z,100662.53
2023-01-25T17:03:55.900Z,100652.88
2023-01-25T17:06:59.110Z,100646.72
2023-01-25T17:10:01.082Z,100656.38
2023-01-25T17:13:03.160Z,100654.66
2023-01-25T17:16:05.854Z,100654.66
2023-01-25T17:19:12.552Z,100652.94
2023-01-25T17:22:14.528Z,100646.81
2023-01-25T17:25:16.968Z,100637.28
2023-01-25T17:28:29.856Z,100639.72
2023-01-25T17:31:33.961Z,100636.38
2023-01-25T17:34:35.993Z,100638.13
2023-01-25T17:37:41.179Z,100646.03
2023-01-25T17:40:43.227Z,100639.25
2023-01-25T17:43:52.545Z,100638.63
2023-01-25T17:46:54.510Z,100637.94
2023-01-25T17:49:56.512Z,100638.06
2023-01-25T17:52:58.632Z,100641.78
2023-01-25T17:56:05.712Z,100631.44
2023-01-25T17:59:11.850Z,100640.41
2023-01-25T18:02:14.306Z,100632.94
2023-01-25T18:05:16.748Z,100634.19
2023-01-25T18:08:18.877Z,100623.91
2023-01-25T18:11:26.210Z,100624.25
2023-01-25T18:14:29.942Z,100634.97
2023-01-25T18:17:35.848Z,100635.13
2023-01-25T18:20:37.772Z,100625.69
2023-01-25T18:23:41.720Z,100624.91
2023-01-25T18:26:44.110Z,100630.25
2023-01-25T18:29:55.578Z,100625.22
2023-01-25T18:32:57.563Z,100628.88
2023-01-25T18:36:02.737Z,100621.06
2023-01-25T18:39:06.894Z,100626.34
2023-01-25T18:42:10.078Z,100623.84
2023-01-25T18:45:13.331Z,100624.00
2023-01-25T18:48:20.313Z,100614.41
2023-01-25T18:51:23.295Z,100617.88
2023-01-25T18:54:25.247Z,100612.81
2023-01-25T18:57:27.702Z,100610.97
2023-01-25T19:00:33.931Z,100602.47
2023-01-25T19:03:35.899Z,100604.34
2023-01-25T19:06:37.785Z,100601.72
2023-01-25T19:09:42.299Z,100597.44
2023-01-25T19:12:44.300Z,100591.44
2023-01-25T19:15:46.367Z,100600.22
2023-01-25T19:18:52.161Z,100591.53
2023-01-25T19:21:54.168Z,100597.84
2023-01-25T19:24:56.075Z,100598.91
2023-01-25T19:27:58.002Z,100590.34
2023-01-25T19:31:07.274Z,100586.16
2023-01-25T19:34:09.336Z,100580.97
2023-01-25T19:37:11.600Z,100581.81
2023-01-25T19:40:13.754Z,100577.53
2023-01-25T19:43:15.643Z,100568.91
2023-01-25T19:46:19.940Z,100569.91
2023-01-25T19:49:22.457Z,100565.69
2023-01-25T19:52:24.421Z,100558.78
2023-01-25T19:55:26.358Z,100559.59
2023-01-25T19:58:28.367Z,100550.09
2023-01-25T20:01:30.801Z,100560.75
2023-01-25T20:04:32.835Z,100557.22
2023-01-25T20:07:34.767Z,100568.56
2023-01-25T20:10:36.731Z,100554.66
2023-01-25T20:13:40.366Z,100553.13
2023-01-25T20:16:43.036Z,100556.75
2023-01-25T20:19:45.014Z,100549.16
2023-01-25T20:22:49.299Z,100548.44
2023-01-25T20:25:59.141Z,100549.31
2023-01-25T20:29:01.184Z,100546.69
2023-01-25T20:32:04.582Z,100543.25
2023-01-25T20:35:08.840Z,100533.72
2023-01-25T20:38:11.316Z,100540.72
2023-01-25T20:41:15.720Z,100546.81
2023-01-25T20:44:18.723Z,100543.34
2023-01-25T20:47:20.598Z,100548.84
2023-01-25T20:50:22.460Z,100550.69
2023-01-25T20:53:24.437Z,100552.50
2023-01-25T20:56:26.517Z,100553.50
2023-01-25T20:59:28.485Z,100547.59
2023-01-25T21:02:30.557Z,100550.38
2023-01-25T21:05:32.525Z,100551.47
2023-01-25T21:08:34.468Z,100544.69
2023-01-25T21:11:36.453Z,100550.03
2023-01-25T21:14:38.390Z,100550.13
2023-01-25T21:17:40.371Z,100547.59
2023-01-25T21:20:42.410Z,100540.59
2023-01-25T21:23:46.176Z,100545.91
2023-01-25T21:26:48.181Z,100538.13
2023-01-25T21:29:50.131Z,100542.59
2023-01-25T21:32:52.060Z,100534.00
2023-01-25T21:35:55.512Z,100540.19
2023-01-25T21:38:58.352Z,100537.72
2023-01-25T21:42:00.377Z,100546.50
2023-01-25T21:45:20.729Z,100543.03
2023-01-25T21:48:42.703Z,100533.56
2023-01-25T21:51:50.332Z,100527.69
2023-01-25T21:54:52.274Z,100530.41
2023-01-25T21:57:54.197Z,100539.22
2023-01-25T22:01:01.090Z,100526.25
2023-01-25T22:04:03.158Z,100520.28
2023-01-25T22:07:06.933Z,100518.66
2023-01-25T22:10:09.647Z,100520.50
2023-01-25T22:13:13.141Z,100508.31
2023-01-25T22:16:15.413Z,100511.75
2023-01-25T22:19:18.040Z,100513.47
2023-01-25T22:22:20.203Z,100511.75
2023-01-25T22:25:22.102Z,100510.84
2023-01-25T22:28:27.234Z,100512.69
2023-01-25T22:31:32.555Z,100513.59
2023-01-25T22:34:34.635Z,100513.59
2023-01-25T22:37:38.099Z,100512.69
2023-01-25T22:40:40.281Z,100507.50
2023-01-25T22:43:43.000Z,100505.91
2023-01-25T22:46:44.904Z,100508.66
2023-01-25T22:49:46.773Z,100503.47
2023-01-25T22:52:49.127Z,100499.19
2023-01-25T22:55:51.074Z,100505.31
2023-01-25T22:58:53.447Z,100498.28
2023-01-25T23:01:55.401Z,100496.66
2023-01-25T23:04:57.719Z,100494.03
2023-01-25T23:07:59.777Z,100493.25
2023-01-25T23:11:07.569Z,100495.97
2023-01-25T23:14:30.786Z,100487.34
2023-01-25T23:17:52.372Z,100490.97
2023-01-25T23:20:55.115Z,100491.06
2023-01-25T23:24:00.973Z,100485.84
2023-01-25T23:27:02.956Z,100484.97
2023-01-25T23:30:07.349Z,100484.97
2023-01-25T23:33:09.239Z,100487.69
2023-01-25T23:36:16.816Z,100494.78
2023-01-25T23:39:19.028Z,100489.56
2023-01-25T23:42:21.029Z,100487.84
2023-01-25T23:45:23.133Z,100480.97
2023-01-25T23:48:25.284Z,100486.34
2023-01-25T23:51:27.197Z,100489.03
2023-01-25T23:54:29.450Z,100488.28
2023-01-25T23:57:31.526Z,100481.38
